createdAt,value
2023-02-06T00:04:24.447Z,-3.70
2023-02-06T00:06:59.379Z,-3.70
2023-02-06T00:09:29.591Z,-3.80
2023-02-06T00:11:57.087Z,-3.60
2023-02-06T00:14:27.634Z,-3.70
2023-02-06T00:16:58.495Z,-3.70
2023-02-06T00:19:27.438Z,-3.90
2023-02-06T00:21:58.092Z,-3.90
2023-02-06T00:24:29.783Z,-3.90
2023-02-06T00:27:02.586Z,-3.90
2023-02-06T00:29:43.269Z,-4.00
2023-02-06T00:32:14.768Z,-4.00
2023-02-06T00:34:44.706Z,-4.00
2023-02-06T00:37:21.111Z,-3.90
2023-02-06T00:39:49.532Z,-3.90
2023-02-06T00:42:20.858Z,-3.80
2023-02-06T00:44:52.674Z,-3.90
2023-02-06T00:47:21.340Z,-4.00
2023-02-06T00:49:48.826Z,-3.90
2023-02-06T00:52:21.984Z,-4.00
2023-02-06T00:54:52.000Z,-3.90
2023-02-06T00:57:19.420Z,-3.90
2023-02-06T00:59:50.455Z,-3.80
2023-02-06T01:02:18.434Z,-3.80
2023-02-06T01:04:48.951Z,-3.80
2023-02-06T01:07:25.199Z,-3.90
2023-02-06T01:09:56.107Z,-3.90
2023-02-06T01:12:29.847Z,-4.00
2023-02-06T01:14:57.430Z,-4.00
2023-02-06T01:17:25.721Z,-4.20
2023-02-06T01:19:58.222Z,-4.30
2023-02-06T01:22:29.158Z,-4.30
2023-02-06T01:24:58.018Z,-4.10
2023-02-06T01:27:28.823Z,-4.10
2023-02-06T01:30:07.589Z,-4.10
2023-02-06T01:32:39.992Z,-4.20
2023-02-06T01:35:13.495Z,-4.20
2023-02-06T01:37:56.134Z,-4.20
2023-02-06T01:40:27.382Z,-4.10
2023-02-06T01:42:54.430Z,-4.00
2023-02-06T01:45:42.955Z,-4.00
2023-02-06T01:48:34.956Z,-4.00
2023-02-06T01:51:03.705Z,-3.90
2023-02-06T01:53:36.986Z,-3.80
2023-02-06T01:56:12.794Z,-3.90
2023-02-06T01:58:46.742Z,-3.90
2023-02-06T02:01:18.620Z,-3.90
2023-02-06T02:03:51.536Z,-3.80
2023-02-06T02:06:28.590Z,-3.80
2023-02-06T02:09:03.155Z,-3.80
2023-02-06T02:11:41.605Z,-3.70
2023-02-06T02:14:14.101Z,-3.90
2023-02-06T02:16:55.606Z,-4.00
2023-02-06T02:20:08.106Z,-4.10
2023-02-06T02:23:21.623Z,-4.10
2023-02-06T02:26:21.366Z,-4.00
2023-02-06T02:29:14.618Z,-4.00
2023-02-06T02:32:13.474Z,-4.30
2023-02-06T02:35:00.264Z,-4.30
2023-02-06T02:38:05.967Z,-4.30
2023-02-06T02:40:59.378Z,-4.30
2023-02-06T02:43:50.530Z,-4.30
2023-02-06T02:46:44.514Z,-4.20
2023-02-06T02:49:30.513Z,-4.30
2023-02-06T02:52:00.587Z,-4.30
2023-02-06T02:54:33.162Z,-4.20
2023-02-06T02:57:24.529Z,-4.20
2023-02-06T02:59:55.193Z,-4.30
2023-02-06T03:02:34.973Z,-4.10
2023-02-06T03:05:14.269Z,-4.10
2023-02-06T03:08:28.423Z,-4.00
2023-02-06T03:11:24.789Z,-4.20
2023-02-06T03:14:30.291Z,-4.20
2023-02-06T03:17:09.009Z,-4.10
2023-02-06T03:19:54.183Z,-4.10
2023-02-06T03:22:30.300Z,-4.10
2023-02-06T03:25:10.146Z,-4.20
2023-02-06T03:27:43.295Z,-4.10
2023-02-06T03:30:21.450Z,-4.10
2023-02-06T03:33:00.504Z,-4.10
2023-02-06T03:35:38.094Z,-3.90
2023-02-06T03:38:08.472Z,-3.90
2023-02-06T03:40:41.442Z,-3.90
2023-02-06T03:43:16.331Z,-4.00
2023-02-06T03:45:50.461Z,-4.00
2023-02-06T03:48:50.849Z,-4.10
2023-02-06T03:51:37.909Z,-4.00
2023-02-06T03:54:13.424Z,-4.10
2023-02-06T03:56:55.653Z,-4.20
2023-02-06T03:59:32.015Z,-4.10
2023-02-06T04:02:07.020Z,-4.00
2023-02-06T04:04:42.359Z,-3.90
2023-02-06T04:07:31.133Z,-4.00
2023-02-06T04:10:00.710Z,-3.80
2023-02-06T04:12:35.381Z,-3.80
2023-02-06T04:15:04.956Z,-3.90
2023-02-06T04:17:49.707Z,-3.90
2023-02-06T04:20:23.632Z,-3.80
2023-02-06T04:22:58.438Z,-3.80
2023-02-06T04:25:27.382Z,-3.90
2023-02-06T04:27:59.909Z,-3.80
2023-02-06T04:30:32.680Z,-3.80
2023-02-06T04:33:09.451Z,-3.90
2023-02-06T04:35:38.822Z,-3.70
2023-02-06T04:38:07.394Z,-3.70
2023-02-06T04:40:34.696Z,-3.60
2023-02-06T04:43:02.740Z,-3.70
2023-02-06T04:45:34.855Z,-3.70
2023-02-06T04:48:05.265Z,-3.70
2023-02-06T04:50:37.827Z,-3.80
2023-02-06T04:53:09.082Z,-3.80
2023-02-06T04:55:39.924Z,-3.80
2023-02-06T04:58:11.266Z,-3.80
2023-02-06T05:00:41.402Z,-3.70
2023-02-06T05:03:09.736Z,-3.70
2023-02-06T05:05:40.738Z,-3.70
2023-02-06T05:08:13.778Z,-3.60
2023-02-06T05:10:46.298Z,-3.80
2023-02-06T05:13:17.264Z,-3.60
2023-02-06T05:15:45.580Z,-3.60
2023-02-06T05:18:17.420Z,-3.70
2023-02-06T05:20:50.937Z,-3.60
2023-02-06T05:23:26.006Z,-3.70
2023-02-06T05:25:53.696Z,-3.70
2023-02-06T05:28:25.216Z,-3.60
2023-02-06T05:30:56.165Z,-3.50
2023-02-06T05:33:29.277Z,-3.50
2023-02-06T05:36:10.934Z,-3.50
2023-02-06T05:38:42.870Z,-3.50
2023-02-06T05:41:10.676Z,-3.60
2023-02-06T05:43:38.335Z,-3.60
2023-02-06T05:46:09.871Z,-3.70
2023-02-06T05:48:41.418Z,-3.70
2023-02-06T05:51:14.607Z,-3.80
2023-02-06T05:53:46.102Z,-3.70
2023-02-06T05:56:15.155Z,-3.70
2023-02-06T05:58:43.872Z,-3.70
2023-02-06T06:01:17.497Z,-3.80
2023-02-06T06:03:48.349Z,-3.70
2023-02-06T06:06:22.961Z,-3.90
2023-02-06T06:08:53.006Z,-3.80
2023-02-06T06:11:22.813Z,-3.80
2023-02-06T06:13:55.810Z,-3.70
2023-02-06T06:16:28.619Z,-3.90
2023-02-06T06:19:06.373Z,-3.90
2023-02-06T06:21:38.056Z,-4.00
2023-02-06T06:24:09.515Z,-3.90
2023-02-06T06:26:40.304Z,-3.90
2023-02-06T06:29:12.582Z,-3.90
2023-02-06T06:31:46.172Z,-3.80
2023-02-06T06:34:20.583Z,-3.70
2023-02-06T06:36:52.304Z,-3.80
2023-02-06T06:39:23.640Z,-3.80
2023-02-06T06:41:53.866Z,-3.90
2023-02-06T06:44:24.125Z,-3.80
2023-02-06T06:46:56.241Z,-3.90
2023-02-06T06:49:29.854Z,-3.80
2023-02-06T06:52:01.884Z,-3.80
2023-02-06T06:54:31.380Z,-3.60
2023-02-06T06:57:05.210Z,-3.60
2023-02-06T06:59:36.717Z,-3.60
2023-02-06T07:02:10.117Z,-3.50
2023-02-06T07:04:44.692Z,-3.50
2023-02-06T07:07:19.449Z,-3.50
2023-02-06T07:09:50.055Z,-3.40
2023-02-06T07:12:23.064Z,-3.30
2023-02-06T07:14:54.226Z,-3.40
2023-02-06T07:17:25.428Z,-3.30
2023-02-06T07:19:56.756Z,-3.30
2023-02-06T07:22:28.552Z,-3.40
2023-02-06T07:24:56.924Z,-3.20
2023-02-06T07:27:28.322Z,-3.30
2023-02-06T07:29:58.271Z,-3.10
2023-02-06T07:32:33.654Z,-3.20
2023-02-06T07:35:03.409Z,-3.10
2023-02-06T07:37:30.872Z,-3.00
2023-02-06T07:40:03.130Z,-2.90
2023-02-06T07:42:36.210Z,-2.90
2023-02-06T07:45:19.031Z,-2.60
2023-02-06T07:47:50.221Z,-2.50
2023-02-06T07:50:19.996Z,-2.40
2023-02-06T07:52:51.042Z,-2.60
2023-02-06T07:55:22.263Z,-2.50
2023-02-06T07:58:03.356Z,-2.50
2023-02-06T08:00:31.890Z,-2.40
2023-02-06T08:02:59.814Z,-2.40
2023-02-06T08:05:31.524Z,-2.50
2023-02-06T08:08:01.436Z,-2.40
2023-02-06T08:10:31.580Z,-2.60
2023-02-06T08:13:08.156Z,-2.30
2023-02-06T08:15:38.438Z,-2.40
2023-02-06T08:18:12.374Z,-2.40
2023-02-06T08:20:46.483Z,-2.20
2023-02-06T08:23:15.036Z,-2.10
2023-02-06T08:25:52.536Z,-2.00
2023-02-06T08:31:13.771Z,-2.10
2023-02-06T08:33:41.695Z,-1.80
2023-02-06T08:36:14.123Z,-1.90
2023-02-06T08:38:46.341Z,-1.80
2023-02-06T08:41:32.955Z,-1.70
2023-02-06T08:44:02.504Z,-1.70
2023-02-06T08:47:09.215Z,-1.70
2023-02-06T08:49:48.710Z,-1.80
2023-02-06T08:52:22.001Z,-1.60
2023-02-06T08:54:53.851Z,-1.50
2023-02-06T08:57:27.083Z,-1.50
2023-02-06T08:59:55.694Z,-1.30
2023-02-06T09:02:27.348Z,-1.10
2023-02-06T09:04:58.204Z,-1.10
2023-02-06T09:07:29.241Z,-0.90
2023-02-06T09:10:00.320Z,-1.00
2023-02-06T09:12:29.707Z,-1.00
2023-02-06T09:15:01.288Z,-0.90
2023-02-06T09:17:33.757Z,-1.00
2023-02-06T09:20:06.027Z,-1.10
2023-02-06T09:22:38.877Z,-1.00
2023-02-06T09:25:12.359Z,-1.00
2023-02-06T09:27:50.087Z,-1.00
2023-02-06T09:30:19.247Z,-1.20
2023-02-06T09:32:49.161Z,-1.00
2023-02-06T09:35:18.284Z,-1.10
2023-02-06T09:37:52.763Z,-0.90
2023-02-06T09:40:29.491Z,-0.80
2023-02-06T09:43:00.814Z,-0.90
2023-02-06T09:45:34.849Z,-0.70
2023-02-06T09:48:36.450Z,-0.70
2023-02-06T09:51:22.780Z,-0.60
2023-02-06T09:54:18.717Z,-0.50
2023-02-06T09:57:24.329Z,-0.40
2023-02-06T10:00:13.987Z,-0.50
2023-02-06T10:03:24.055Z,-0.30
2023-02-06T10:06:20.364Z,-0.10
2023-02-06T10:13:06.648Z,0.10
2023-02-06T10:15:50.900Z,0.60
2023-02-06T10:18:36.494Z,0.70
2023-02-06T10:21:48.443Z,1.00
2023-02-06T10:24:46.929Z,0.80
2023-02-06T10:27:17.875Z,0.90
2023-02-06T10:29:48.457Z,0.90
2023-02-06T10:32:42.418Z,1.00
2023-02-06T10:35:43.663Z,1.30
2023-02-06T10:38:30.468Z,1.10
2023-02-06T10:41:27.359Z,1.10
2023-02-06T10:44:46.429Z,1.80
2023-02-06T10:47:45.084Z,2.30
2023-02-06T10:50:37.482Z,2.30
2023-02-06T10:53:22.448Z,2.30
2023-02-06T10:56:01.835Z,2.10
2023-02-06T10:58:35.898Z,2.00
2023-02-06T11:01:23.640Z,2.40
2023-02-06T11:04:28.053Z,3.00
2023-02-06T11:07:04.534Z,4.30
2023-02-06T11:09:37.120Z,5.40
2023-02-06T11:12:06.228Z,6.10
2023-02-06T11:14:41.530Z,6.60
2023-02-06T11:17:11.570Z,6.80
2023-02-06T11:19:44.975Z,7.40
2023-02-06T11:22:51.104Z,8.00
2023-02-06T11:25:36.999Z,9.30
2023-02-06T11:28:16.399Z,10.90
2023-02-06T11:31:11.569Z,11.70
2023-02-06T11:34:01.263Z,11.30
2023-02-06T11:36:53.310Z,9.70
2023-02-06T11:39:43.066Z,9.40
2023-02-06T11:42:27.461Z,10.00
2023-02-06T11:45:00.631Z,11.60
2023-02-06T11:47:50.085Z,11.20
2023-02-06T11:50:43.949Z,9.40
2023-02-06T11:53:20.832Z,7.70
2023-02-06T11:56:17.434Z,6.80
2023-02-06T11:58:48.524Z,7.30
2023-02-06T12:01:24.816Z,8.50
2023-02-06T12:04:34.440Z,8.80
2023-02-06T12:07:30.392Z,8.20
2023-02-06T12:10:07.425Z,8.00
2023-02-06T12:12:41.053Z,7.70
2023-02-06T12:15:46.694Z,7.40
2023-02-06T12:18:24.732Z,8.50
2023-02-06T12:21:22.962Z,8.70
2023-02-06T12:24:11.002Z,8.80
2023-02-06T12:26:45.375Z,9.30
2023-02-06T12:29:40.352Z,9.20
2023-02-06T12:32:19.051Z,10.00
2023-02-06T12:34:58.061Z,10.40
2023-02-06T12:37:57.428Z,10.00
2023-02-06T12:40:54.123Z,10.20
2023-02-06T12:43:24.208Z,9.80
2023-02-06T12:46:17.416Z,8.70
2023-02-06T12:49:07.950Z,8.90
2023-02-06T12:51:59.349Z,11.10
2023-02-06T12:54:34.862Z,12.50
2023-02-06T12:57:21.260Z,12.30
2023-02-06T13:00:16.674Z,11.90
2023-02-06T13:03:07.554Z,12.20
2023-02-06T13:05:49.211Z,11.90
2023-02-06T13:08:59.260Z,12.00
2023-02-06T13:11:43.717Z,12.40
2023-02-06T13:14:30.357Z,11.90
2023-02-06T13:17:15.248Z,9.20
2023-02-06T13:19:50.547Z,8.80
2023-02-06T13:22:36.497Z,8.60
2023-02-06T13:25:53.437Z,8.10
2023-02-06T13:28:46.026Z,7.70
2023-02-06T13:31:30.402Z,8.10
2023-02-06T13:34:03.587Z,8.70
2023-02-06T13:36:54.553Z,9.00
2023-02-06T13:39:30.398Z,9.90
2023-02-06T13:42:26.453Z,9.50
2023-02-06T13:44:54.044Z,8.20
2023-02-06T13:47:44.786Z,8.90
2023-02-06T13:50:48.494Z,8.60
2023-02-06T13:53:59.085Z,7.00
2023-02-06T13:57:09.783Z,6.50
2023-02-06T14:00:05.207Z,5.40
2023-02-06T14:03:06.879Z,5.10
2023-02-06T14:06:02.578Z,4.70
2023-02-06T14:09:09.211Z,4.50
2023-02-06T14:12:33.072Z,4.20
2023-02-06T14:15:23.822Z,3.80
2023-02-06T14:18:20.307Z,3.50
2023-02-06T14:21:26.744Z,3.60
2023-02-06T14:24:15.749Z,3.50
2023-02-06T14:27:29.279Z,3.20
2023-02-06T14:30:21.579Z,3.10
2023-02-06T14:33:28.737Z,3.10
2023-02-06T14:36:14.499Z,3.30
2023-02-06T14:39:24.336Z,4.80
2023-02-06T14:41:57.271Z,5.70
2023-02-06T14:44:31.043Z,4.60
2023-02-06T14:47:01.667Z,4.30
2023-02-06T14:49:39.681Z,4.50
2023-02-06T14:52:22.077Z,4.30
2023-02-06T14:54:52.448Z,4.10
2023-02-06T14:57:42.212Z,4.30
2023-02-06T15:00:24.110Z,4.00
2023-02-06T15:03:26.477Z,4.70
2023-02-06T15:06:22.020Z,5.70
2023-02-06T15:08:54.392Z,5.90
2023-02-06T15:11:33.046Z,4.20
2023-02-06T15:14:19.483Z,3.30
2023-02-06T15:16:53.497Z,2.90
2023-02-06T15:19:35.753Z,2.40
2023-02-06T15:22:20.636Z,2.00
2023-02-06T15:25:27.582Z,1.90
2023-02-06T15:28:13.576Z,1.80
2023-02-06T15:30:44.007Z,1.50
2023-02-06T15:33:25.105Z,1.40
2023-02-06T15:36:01.123Z,1.20
2023-02-06T15:38:33.347Z,1.10
2023-02-06T15:41:07.211Z,1.00
2023-02-06T15:43:39.693Z,0.80
2023-02-06T15:46:11.348Z,0.70
2023-02-06T15:49:01.590Z,0.70
2023-02-06T15:51:56.368Z,0.60
2023-02-06T15:57:41.106Z,0.40
2023-02-06T16:00:26.239Z,0.30
2023-02-06T16:03:02.138Z,0.40
2023-02-06T16:05:38.633Z,0.20
2023-02-06T16:08:22.012Z,0.20
2023-02-06T16:10:59.946Z,0.00
2023-02-06T16:13:39.690Z,-0.10
2023-02-06T16:16:33.831Z,-0.20
2023-02-06T16:19:02.119Z,-0.30
2023-02-06T16:21:35.387Z,-0.30
2023-02-06T16:24:21.306Z,-0.30
2023-02-06T16:26:52.686Z,-0.30
2023-02-06T16:29:38.789Z,-0.40
2023-02-06T16:32:46.362Z,-0.40
2023-02-06T16:35:14.929Z,-0.60
2023-02-06T16:37:42.152Z,-0.60
2023-02-06T16:40:12.155Z,-0.50
2023-02-06T16:42:49.280Z,-0.60
2023-02-06T16:45:29.237Z,-0.70
2023-02-06T16:48:00.907Z,-0.70
2023-02-06T16:50:41.485Z,-0.60
2023-02-06T16:53:29.811Z,-0.60
2023-02-06T16:56:01.402Z,-0.60
2023-02-06T16:58:35.956Z,-0.70
2023-02-06T17:01:14.987Z,-0.80
2023-02-06T17:03:45.498Z,-0.80
2023-02-06T17:06:21.798Z,-0.90
2023-02-06T17:08:55.322Z,-1.10
2023-02-06T17:11:27.796Z,-1.20
2023-02-06T17:14:00.796Z,-1.20
2023-02-06T17:16:37.918Z,-1.20
2023-02-06T17:19:06.342Z,-1.30
2023-02-06T17:21:38.733Z,-1.20
2023-02-06T17:24:06.489Z,-1.30
2023-02-06T17:26:38.143Z,-1.30
2023-02-06T17:29:09.125Z,-1.30
2023-02-06T17:31:42.864Z,-1.50
2023-02-06T17:34:13.800Z,-1.50
2023-02-06T17:36:48.657Z,-1.50
2023-02-06T17:39:20.544Z,-1.60
2023-02-06T17:41:51.024Z,-1.50
2023-02-06T17:44:24.679Z,-1.50
2023-02-06T17:46:54.453Z,-1.50
2023-02-06T17:49:30.606Z,-1.70
2023-02-06T17:52:01.987Z,-1.70
2023-02-06T17:54:37.481Z,-1.70
2023-02-06T17:57:12.516Z,-1.80
2023-02-06T17:59:46.598Z,-1.80
2023-02-06T18:02:22.884Z,-1.70
2023-02-06T18:04:58.959Z,-1.80
2023-02-06T18:07:28.945Z,-1.80
2023-02-06T18:10:11.050Z,-1.80
2023-02-06T18:12:42.848Z,-1.90
2023-02-06T18:15:22.980Z,-2.10
2023-02-06T18:17:56.725Z,-2.10
2023-02-06T18:20:35.551Z,-2.20
2023-02-06T18:23:12.883Z,-2.20
2023-02-06T18:25:44.321Z,-2.20
2023-02-06T18:28:40.745Z,-2.20
2023-02-06T18:31:47.685Z,-2.20
2023-02-06T18:34:20.745Z,-2.40
2023-02-06T18:37:03.497Z,-2.40
2023-02-06T18:39:37.154Z,-2.50
2023-02-06T18:42:29.279Z,-2.50
2023-02-06T18:45:11.798Z,-2.40
2023-02-06T18:47:49.723Z,-2.40
2023-02-06T18:50:27.671Z,-2.30
2023-02-06T18:53:07.945Z,-2.50
2023-02-06T18:55:41.509Z,-2.50
2023-02-06T18:58:13.607Z,-2.50
2023-02-06T19:00:46.019Z,-2.70
2023-02-06T19:03:21.567Z,-2.70
2023-02-06T19:06:10.572Z,-2.80
2023-02-06T19:08:48.017Z,-2.70
2023-02-06T19:11:25.312Z,-2.60
2023-02-06T19:14:00.339Z,-2.60
2023-02-06T19:16:38.018Z,-2.60
2023-02-06T19:19:10.840Z,-2.60
2023-02-06T19:21:40.059Z,-2.70
2023-02-06T19:29:47.575Z,-3.00
2023-02-06T19:32:24.695Z,-3.00
2023-02-06T19:34:58.401Z,-3.00
2023-02-06T19:37:30.913Z,-2.90
2023-02-06T19:40:03.709Z,-3.10
2023-02-06T19:42:35.604Z,-3.30
2023-02-06T19:45:07.617Z,-3.20
2023-02-06T19:47:40.149Z,-3.30
2023-02-06T19:50:15.339Z,-3.30
2023-02-06T19:52:49.460Z,-3.30
2023-02-06T19:55:24.441Z,-3.20
2023-02-06T19:58:00.924Z,-3.40
2023-02-06T20:00:36.117Z,-3.60
2023-02-06T20:03:10.076Z,-3.50
2023-02-06T20:05:48.072Z,-3.60
2023-02-06T20:08:19.131Z,-3.50
2023-02-06T20:10:57.355Z,-3.40
2023-02-06T20:13:41.989Z,-3.40
2023-02-06T20:16:37.915Z,-3.50
2023-02-06T20:19:31.133Z,-3.50
2023-02-06T20:22:02.286Z,-3.50
2023-02-06T20:24:48.007Z,-3.50
2023-02-06T20:27:21.764Z,-3.60
2023-02-06T20:29:57.062Z,-3.50
2023-02-06T20:32:30.786Z,-3.50
2023-02-06T20:35:07.255Z,-3.70
2023-02-06T20:37:48.175Z,-3.70
2023-02-06T20:40:23.362Z,-3.50
2023-02-06T20:42:51.752Z,-3.60
2023-02-06T20:45:23.388Z,-3.50
2023-02-06T20:47:51.097Z,-3.60
2023-02-06T20:50:21.415Z,-3.70
2023-02-06T20:52:52.740Z,-3.60
2023-02-06T20:55:22.586Z,-3.60
2023-02-06T20:57:54.105Z,-3.70
2023-02-06T21:00:29.660Z,-3.70
2023-02-06T21:02:58.762Z,-3.70
2023-02-06T21:05:32.721Z,-3.90
2023-02-06T21:08:04.369Z,-3.90
2023-02-06T21:10:34.028Z,-3.80
2023-02-06T21:13:03.478Z,-3.90
2023-02-06T21:15:37.412Z,-3.80
2023-02-06T21:18:14.726Z,-3.90
2023-02-06T21:20:52.445Z,-3.90
2023-02-06T21:23:22.458Z,-3.90
2023-02-06T21:25:56.560Z,-4.10
2023-02-06T21:28:27.736Z,-4.10
2023-02-06T21:31:04.853Z,-4.10
2023-02-06T21:33:39.710Z,-4.10
2023-02-06T21:36:08.975Z,-3.80
2023-02-06T21:38:41.857Z,-4.10
2023-02-06T21:41:17.185Z,-4.20
2023-02-06T21:43:46.988Z,-4.20
2023-02-06T21:46:18.198Z,-4.20
2023-02-06T21:48:55.256Z,-4.20
2023-02-06T21:51:23.970Z,-4.20
2023-02-06T21:53:54.046Z,-4.20
2023-02-06T21:56:33.539Z,-4.30
2023-02-06T22:01:43.831Z,-4.40
2023-02-06T22:04:21.529Z,-4.30
2023-02-06T22:06:55.754Z,-4.30
2023-02-06T22:09:25.466Z,-4.40
2023-02-06T22:11:56.738Z,-4.50
2023-02-06T22:17:10.461Z,-4.60
2023-02-06T22:19:46.249Z,-4.60
2023-02-06T22:22:16.033Z,-4.70
2023-02-06T22:24:44.687Z,-4.70
2023-02-06T22:27:13.724Z,-4.60
2023-02-06T22:29:44.240Z,-4.70
2023-02-06T22:32:16.966Z,-4.80
2023-02-06T22:34:46.179Z,-4.90
2023-02-06T22:37:15.969Z,-4.70
2023-02-06T22:39:46.982Z,-4.70
2023-02-06T22:42:15.847Z,-4.70
2023-02-06T22:44:47.093Z,-4.60
2023-02-06T22:47:17.652Z,-4.90
2023-02-06T22:50:03.935Z,-5.10
2023-02-06T22:52:54.022Z,-4.90
2023-02-06T22:55:25.417Z,-4.70
2023-02-06T22:57:57.529Z,-4.80
2023-02-06T23:00:24.791Z,-5.00
2023-02-06T23:02:56.342Z,-5.00
2023-02-06T23:05:26.348Z,-4.90
2023-02-06T23:07:57.251Z,-4.90
2023-02-06T23:10:33.035Z,-4.90
2023-02-06T23:13:02.857Z,-5.00
2023-02-06T23:15:32.665Z,-5.20
2023-02-06T23:18:03.003Z,-5.20
2023-02-06T23:20:33.838Z,-5.10
2023-02-06T23:23:01.637Z,-5.20
2023-02-06T23:25:36.115Z,-5.10
2023-02-06T23:28:08.331Z,-5.20
2023-02-06T23:30:40.451Z,-5.20
2023-02-06T23:33:13.066Z,-5.10
2023-02-06T23:35:41.314Z,-5.20
2023-02-06T23:38:11.746Z,-5.30
2023-02-06T23:40:41.121Z,-5.30
2023-02-06T23:43:10.055Z,-5.20
2023-02-06T23:45:39.439Z,-5.00
2023-02-06T23:48:08.114Z,-5.00
2023-02-06T23:50:39.281Z,-5.00
2023-02-06T23:53:09.934Z,-4.90
2023-02-06T23:55:43.148Z,-5.10
2023-02-06T23:58:15.528Z,-5.20
